sensor_id;sensor_type;location;lat;lon;timestamp;P1;durP1;ratioP1;P2;durP2;ratioP2
57627;SDS011;43451;49.060;10.616;2022-07-29T00:00:18;3.70;;;2.65;;
57627;SDS011;43451;49.060;10.616;2022-07-29T00:02:44;3.15;;;2.50;;
57627;SDS011;43451;49.060;10.616;2022-07-29T00:05:09;4.30;;;3.25;;
57627;SDS011;43451;49.060;10.616;2022-07-29T00:07:38;7.85;;;2.75;;
57627;SDS011;43451;49.060;10.616;2022-07-29T00:10:04;5.20;;;2.67;;
57627;SDS011;43451;49.060;10.616;2022-07-29T00:12:29;6.03;;;2.63;;
57627;SDS011;43451;49.060;10.616;2022-07-29T00:14:55;7.50;;;2.67;;
57627;SDS011;43451;49.060;10.616;2022-07-29T00:17:21;3.30;;;2.60;;
57627;SDS011;43451;49.060;10.616;2022-07-29T00:19:47;3.90;;;2.45;;
57627;SDS011;43451;49.060;10.616;2022-07-29T00:22:12;4.68;;;2.63;;
57627;SDS011;43451;49.060;10.616;2022-07-29T00:24:37;4.90;;;2.70;;
57627;SDS011;43451;49.060;10.616;2022-07-29T00:27:03;6.28;;;2.70;;
57627;SDS011;43451;49.060;10.616;2022-07-29T00:29:28;5.65;;;3.00;;
57627;SDS011;43451;49.060;10.616;2022-07-29T00:31:54;3.53;;;3.08;;
57627;SDS011;43451;49.060;10.616;2022-07-29T00:34:19;4.10;;;3.00;;
57627;SDS011;43451;49.060;10.616;2022-07-29T00:37:03;4.80;;;3.03;;
57627;SDS011;43451;49.060;10.616;2022-07-29T00:39:29;4.88;;;2.97;;
57627;SDS011;43451;49.060;10.616;2022-07-29T00:41:54;4.63;;;3.15;;
57627;SDS011;43451;49.060;10.616;2022-07-29T00:44:20;3.85;;;3.15;;
57627;SDS011;43451;49.060;10.616;2022-07-29T00:46:45;6.50;;;3.20;;
57627;SDS011;43451;49.060;10.616;2022-07-29T00:49:10;4.25;;;3.05;;
57627;SDS011;43451;49.060;10.616;2022-07-29T00:51:36;4.35;;;3.15;;
57627;SDS011;43451;49.060;10.616;2022-07-29T00:54:03;5.22;;;2.85;;
57627;SDS011;43451;49.060;10.616;2022-07-29T00:56:32;5.93;;;2.92;;
57627;SDS011;43451;49.060;10.616;2022-07-29T00:58:58;5.03;;;3.15;;
57627;SDS011;43451;49.060;10.616;2022-07-29T01:01:24;5.38;;;3.10;;
57627;SDS011;43451;49.060;10.616;2022-07-29T01:03:51;5.07;;;2.90;;
57627;SDS011;43451;49.060;10.616;2022-07-29T01:06:17;5.63;;;2.80;;
57627;SDS011;43451;49.060;10.616;2022-07-29T01:08:43;4.78;;;3.00;;
57627;SDS011;43451;49.060;10.616;2022-07-29T01:11:10;3.92;;;2.85;;
57627;SDS011;43451;49.060;10.616;2022-07-29T01:13:36;5.78;;;3.13;;
57627;SDS011;43451;49.060;10.616;2022-07-29T01:16:07;4.15;;;3.10;;
57627;SDS011;43451;49.060;10.616;2022-07-29T01:18:39;5.28;;;3.30;;
57627;SDS011;43451;49.060;10.616;2022-07-29T01:24:04;7.40;;;3.00;;
57627;SDS011;43451;49.060;10.616;2022-07-29T01:26:54;6.28;;;3.00;;
57627;SDS011;43451;49.060;10.616;2022-07-29T01:29:30;4.55;;;2.85;;
57627;SDS011;43451;49.060;10.616;2022-07-29T01:32:02;6.00;;;3.35;;
57627;SDS011;43451;49.060;10.616;2022-07-29T01:34:39;3.53;;;3.10;;
57627;SDS011;43451;49.060;10.616;2022-07-29T01:37:15;4.68;;;3.20;;
57627;SDS011;43451;49.060;10.616;2022-07-29T01:39:43;6.88;;;3.33;;
57627;SDS011;43451;49.060;10.616;2022-07-29T01:42:14;6.03;;;3.40;;
57627;SDS011;43451;49.060;10.616;2022-07-29T01:44:48;4.90;;;3.10;;
57627;SDS011;43451;49.060;10.616;2022-07-29T01:47:21;4.65;;;3.17;;
57627;SDS011;43451;49.060;10.616;2022-07-29T01:49:51;3.45;;;3.15;;
57627;SDS011;43451;49.060;10.616;2022-07-29T01:52:27;7.00;;;3.50;;
57627;SDS011;43451;49.060;10.616;2022-07-29T01:55:07;5.63;;;3.47;;
57627;SDS011;43451;49.060;10.616;2022-07-29T01:57:38;6.88;;;3.78;;
57627;SDS011;43451;49.060;10.616;2022-07-29T02:00:07;4.80;;;3.30;;
57627;SDS011;43451;49.060;10.616;2022-07-29T02:02:33;4.75;;;3.63;;
57627;SDS011;43451;49.060;10.616;2022-07-29T02:05:02;5.40;;;3.83;;
57627;SDS011;43451;49.060;10.616;2022-07-29T02:07:31;5.28;;;4.05;;
57627;SDS011;43451;49.060;10.616;2022-07-29T02:09:58;4.78;;;3.67;;
57627;SDS011;43451;49.060;10.616;2022-07-29T02:12:27;4.00;;;3.45;;
57627;SDS011;43451;49.060;10.616;2022-07-29T02:14:54;7.03;;;3.40;;
57627;SDS011;43451;49.060;10.616;2022-07-29T02:17:27;6.63;;;3.78;;
57627;SDS011;43451;49.060;10.616;2022-07-29T02:19:56;5.65;;;3.50;;
57627;SDS011;43451;49.060;10.616;2022-07-29T02:22:25;5.28;;;3.88;;
57627;SDS011;43451;49.060;10.616;2022-07-29T02:24:54;5.05;;;3.78;;
57627;SDS011;43451;49.060;10.616;2022-07-29T02:29:48;5.30;;;3.80;;
57627;SDS011;43451;49.060;10.616;2022-07-29T02:32:16;5.32;;;3.63;;
57627;SDS011;43451;49.060;10.616;2022-07-29T02:34:43;5.55;;;3.72;;
57627;SDS011;43451;49.060;10.616;2022-07-29T02:37:09;5.35;;;3.75;;
57627;SDS011;43451;49.060;10.616;2022-07-29T02:39:36;6.22;;;4.20;;
57627;SDS011;43451;49.060;10.616;2022-07-29T02:42:04;5.40;;;4.00;;
57627;SDS011;43451;49.060;10.616;2022-07-29T02:44:32;5.40;;;3.85;;
57627;SDS011;43451;49.060;10.616;2022-07-29T02:49:56;5.97;;;4.20;;
57627;SDS011;43451;49.060;10.616;2022-07-29T02:52:34;4.63;;;3.85;;
57627;SDS011;43451;49.060;10.616;2022-07-29T02:55:15;6.07;;;4.05;;
57627;SDS011;43451;49.060;10.616;2022-07-29T02:57:46;6.93;;;4.32;;
57627;SDS011;43451;49.060;10.616;2022-07-29T03:00:15;7.93;;;4.25;;
57627;SDS011;43451;49.060;10.616;2022-07-29T03:02:45;5.03;;;4.40;;
57627;SDS011;43451;49.060;10.616;2022-07-29T03:05:15;5.00;;;4.03;;
57627;SDS011;43451;49.060;10.616;2022-07-29T03:07:51;4.78;;;4.10;;
57627;SDS011;43451;49.060;10.616;2022-07-29T03:10:21;5.32;;;4.13;;
57627;SDS011;43451;49.060;10.616;2022-07-29T03:12:47;6.05;;;4.22;;
57627;SDS011;43451;49.060;10.616;2022-07-29T03:15:13;4.55;;;3.75;;
57627;SDS011;43451;49.060;10.616;2022-07-29T03:17:39;5.15;;;3.80;;
57627;SDS011;43451;49.060;10.616;2022-07-29T03:20:04;5.95;;;4.35;;
57627;SDS011;43451;49.060;10.616;2022-07-29T03:22:32;5.10;;;4.00;;
57627;SDS011;43451;49.060;10.616;2022-07-29T03:24:58;5.38;;;4.20;;
57627;SDS011;43451;49.060;10.616;2022-07-29T03:27:32;9.23;;;4.68;;
57627;SDS011;43451;49.060;10.616;2022-07-29T03:29:59;6.93;;;4.90;;
57627;SDS011;43451;49.060;10.616;2022-07-29T03:32:24;6.20;;;4.43;;
57627;SDS011;43451;49.060;10.616;2022-07-29T03:34:49;5.18;;;4.30;;
57627;SDS011;43451;49.060;10.616;2022-07-29T03:37:15;5.47;;;4.03;;
57627;SDS011;43451;49.060;10.616;2022-07-29T03:39:40;5.90;;;4.15;;
57627;SDS011;43451;49.060;10.616;2022-07-29T03:42:08;6.57;;;4.10;;
57627;SDS011;43451;49.060;10.616;2022-07-29T03:44:36;6.72;;;4.18;;
57627;SDS011;43451;49.060;10.616;2022-07-29T03:47:03;10.00;;;4.50;;
57627;SDS011;43451;49.060;10.616;2022-07-29T03:51:57;6.95;;;4.18;;
57627;SDS011;43451;49.060;10.616;2022-07-29T03:54:23;6.13;;;4.70;;
57627;SDS011;43451;49.060;10.616;2022-07-29T03:56:48;9.55;;;4.55;;
57627;SDS011;43451;49.060;10.616;2022-07-29T03:59:17;5.82;;;4.10;;
57627;SDS011;43451;49.060;10.616;2022-07-29T04:01:44;5.93;;;4.00;;
57627;SDS011;43451;49.060;10.616;2022-07-29T04:04:11;51.08;;;6.93;;
57627;SDS011;43451;49.060;10.616;2022-07-29T04:06:44;7.43;;;4.15;;
57627;SDS011;43451;49.060;10.616;2022-07-29T04:09:11;13.73;;;4.38;;
57627;SDS011;43451;49.060;10.616;2022-07-29T04:11:40;7.75;;;4.40;;
57627;SDS011;43451;49.060;10.616;2022-07-29T04:14:06;7.53;;;4.30;;
57627;SDS011;43451;49.060;10.616;2022-07-29T04:16:32;5.70;;;4.50;;
57627;SDS011;43451;49.060;10.616;2022-07-29T04:18:57;6.70;;;4.15;;
57627;SDS011;43451;49.060;10.616;2022-07-29T04:21:22;9.85;;;4.68;;
57627;SDS011;43451;49.060;10.616;2022-07-29T04:23:48;10.05;;;4.25;;
57627;SDS011;43451;49.060;10.616;2022-07-29T04:26:18;7.95;;;4.10;;
57627;SDS011;43451;49.060;10.616;2022-07-29T04:28:44;7.72;;;4.20;;
57627;SDS011;43451;49.060;10.616;2022-07-29T04:31:09;4.32;;;3.92;;
57627;SDS011;43451;49.060;10.616;2022-07-29T04:33:36;7.95;;;4.35;;
57627;SDS011;43451;49.060;10.616;2022-07-29T04:36:01;4.93;;;3.95;;
57627;SDS011;43451;49.060;10.616;2022-07-29T04:38:26;4.32;;;3.90;;
57627;SDS011;43451;49.060;10.616;2022-07-29T04:40:52;6.40;;;3.97;;
57627;SDS011;43451;49.060;10.616;2022-07-29T04:43:17;6.70;;;4.05;;
57627;SDS011;43451;49.060;10.616;2022-07-29T04:45:43;4.95;;;4.07;;
57627;SDS011;43451;49.060;10.616;2022-07-29T04:48:08;7.85;;;4.40;;
57627;SDS011;43451;49.060;10.616;2022-07-29T04:50:34;6.25;;;3.95;;
57627;SDS011;43451;49.060;10.616;2022-07-29T04:52:59;6.88;;;4.45;;
57627;SDS011;43451;49.060;10.616;2022-07-29T04:55:24;7.50;;;4.40;;
57627;SDS011;43451;49.060;10.616;2022-07-29T04:57:50;5.53;;;4.10;;
57627;SDS011;43451;49.060;10.616;2022-07-29T05:00:16;7.40;;;4.65;;
57627;SDS011;43451;49.060;10.616;2022-07-29T05:02:41;7.22;;;4.70;;
57627;SDS011;43451;49.060;10.616;2022-07-29T05:05:07;12.23;;;5.03;;
57627;SDS011;43451;49.060;10.616;2022-07-29T05:07:33;8.77;;;4.57;;
57627;SDS011;43451;49.060;10.616;2022-07-29T05:09:58;8.07;;;5.07;;
57627;SDS011;43451;49.060;10.616;2022-07-29T05:12:24;11.95;;;4.93;;
57627;SDS011;43451;49.060;10.616;2022-07-29T05:14:50;9.98;;;5.43;;
57627;SDS011;43451;49.060;10.616;2022-07-29T05:17:16;8.07;;;4.63;;
57627;SDS011;43451;49.060;10.616;2022-07-29T05:19:41;8.10;;;4.72;;
57627;SDS011;43451;49.060;10.616;2022-07-29T05:22:07;6.65;;;4.40;;
57627;SDS011;43451;49.060;10.616;2022-07-29T05:24:32;5.45;;;4.28;;
57627;SDS011;43451;49.060;10.616;2022-07-29T05:26:58;6.00;;;4.20;;
57627;SDS011;43451;49.060;10.616;2022-07-29T05:29:23;6.22;;;3.88;;
57627;SDS011;43451;49.060;10.616;2022-07-29T05:31:49;6.63;;;4.10;;
57627;SDS011;43451;49.060;10.616;2022-07-29T05:34:15;7.10;;;4.10;;
57627;SDS011;43451;49.060;10.616;2022-07-29T05:36:41;6.97;;;3.97;;
57627;SDS011;43451;49.060;10.616;2022-07-29T05:39:07;6.00;;;3.83;;
57627;SDS011;43451;49.060;10.616;2022-07-29T05:41:32;4.65;;;3.45;;
57627;SDS011;43451;49.060;10.616;2022-07-29T05:43:58;4.80;;;3.72;;
57627;SDS011;43451;49.060;10.616;2022-07-29T05:46:23;3.72;;;3.22;;
57627;SDS011;43451;49.060;10.616;2022-07-29T05:48:49;5.13;;;3.70;;
57627;SDS011;43451;49.060;10.616;2022-07-29T05:51:14;4.05;;;3.58;;
57627;SDS011;43451;49.060;10.616;2022-07-29T05:53:40;4.65;;;3.50;;
57627;SDS011;43451;49.060;10.616;2022-07-29T05:56:06;4.82;;;3.53;;
57627;SDS011;43451;49.060;10.616;2022-07-29T05:58:32;4.40;;;3.17;;
57627;SDS011;43451;49.060;10.616;2022-07-29T06:00:57;5.78;;;3.55;;
57627;SDS011;43451;49.060;10.616;2022-07-29T06:03:24;7.63;;;3.72;;
57627;SDS011;43451;49.060;10.616;2022-07-29T06:05:50;9.35;;;3.83;;
57627;SDS011;43451;49.060;10.616;2022-07-29T06:08:15;11.45;;;3.80;;
57627;SDS011;43451;49.060;10.616;2022-07-29T06:10:40;6.22;;;3.88;;
57627;SDS011;43451;49.060;10.616;2022-07-29T06:13:06;4.80;;;3.47;;
57627;SDS011;43451;49.060;10.616;2022-07-29T06:15:32;3.80;;;3.40;;
57627;SDS011;43451;49.060;10.616;2022-07-29T06:17:57;5.32;;;3.28;;
57627;SDS011;43451;49.060;10.616;2022-07-29T06:20:22;5.10;;;3.30;;
57627;SDS011;43451;49.060;10.616;2022-07-29T06:22:48;5.75;;;3.55;;
57627;SDS011;43451;49.060;10.616;2022-07-29T06:25:13;3.75;;;3.10;;
57627;SDS011;43451;49.060;10.616;2022-07-29T06:27:39;4.70;;;3.10;;
57627;SDS011;43451;49.060;10.616;2022-07-29T06:30:04;3.50;;;2.83;;
57627;SDS011;43451;49.060;10.616;2022-07-29T06:34:57;4.88;;;3.40;;
57627;SDS011;43451;49.060;10.616;2022-07-29T06:37:23;11.13;;;3.50;;
57627;SDS011;43451;49.060;10.616;2022-07-29T06:39:48;4.35;;;3.10;;
57627;SDS011;43451;49.060;10.616;2022-07-29T06:42:34;4.60;;;3.08;;
57627;SDS011;43451;49.060;10.616;2022-07-29T06:44:59;3.72;;;3.20;;
57627;SDS011;43451;49.060;10.616;2022-07-29T06:47:24;3.90;;;3.10;;
57627;SDS011;43451;49.060;10.616;2022-07-29T06:49:50;10.93;;;3.42;;
57627;SDS011;43451;49.060;10.616;2022-07-29T06:52:15;5.40;;;3.15;;
57627;SDS011;43451;49.060;10.616;2022-07-29T06:54:41;4.15;;;3.35;;
57627;SDS011;43451;49.060;10.616;2022-07-29T06:57:12;9.73;;;3.70;;
57627;SDS011;43451;49.060;10.616;2022-07-29T06:59:38;10.85;;;3.78;;
57627;SDS011;43451;49.060;10.616;2022-07-29T07:02:04;9.65;;;3.67;;
57627;SDS011;43451;49.060;10.616;2022-07-29T07:04:29;4.80;;;2.95;;
57627;SDS011;43451;49.060;10.616;2022-07-29T07:06:55;20.60;;;3.63;;
57627;SDS011;43451;49.060;10.616;2022-07-29T07:09:20;5.47;;;2.72;;
57627;SDS011;43451;49.060;10.616;2022-07-29T07:11:46;3.70;;;2.60;;
57627;SDS011;43451;49.060;10.616;2022-07-29T07:14:12;4.43;;;2.88;;
57627;SDS011;43451;49.060;10.616;2022-07-29T07:16:37;7.13;;;2.70;;
57627;SDS011;43451;49.060;10.616;2022-07-29T07:19:02;4.90;;;2.67;;
57627;SDS011;43451;49.060;10.616;2022-07-29T07:21:28;8.40;;;2.47;;
57627;SDS011;43451;49.060;10.616;2022-07-29T07:23:54;6.03;;;2.75;;
57627;SDS011;43451;49.060;10.616;2022-07-29T07:26:19;8.85;;;2.95;;
57627;SDS011;43451;49.060;10.616;2022-07-29T07:28:45;12.80;;;3.08;;
57627;SDS011;43451;49.060;10.616;2022-07-29T07:31:10;7.75;;;3.03;;
57627;SDS011;43451;49.060;10.616;2022-07-29T07:33:36;3.75;;;2.65;;
57627;SDS011;43451;49.060;10.616;2022-07-29T07:36:01;7.35;;;2.75;;
57627;SDS011;43451;49.060;10.616;2022-07-29T07:38:27;20.67;;;3.20;;
57627;SDS011;43451;49.060;10.616;2022-07-29T07:40:53;7.85;;;2.60;;
57627;SDS011;43451;49.060;10.616;2022-07-29T07:43:18;9.90;;;3.05;;
57627;SDS011;43451;49.060;10.616;2022-07-29T07:45:43;3.53;;;2.53;;
57627;SDS011;43451;49.060;10.616;2022-07-29T07:48:09;3.35;;;2.65;;
57627;SDS011;43451;49.060;10.616;2022-07-29T07:50:35;3.75;;;2.40;;
57627;SDS011;43451;49.060;10.616;2022-07-29T07:53:01;9.30;;;2.90;;
57627;SDS011;43451;49.060;10.616;2022-07-29T07:55:27;4.60;;;2.55;;
57627;SDS011;43451;49.060;10.616;2022-07-29T07:57:55;4.85;;;2.72;;
57627;SDS011;43451;49.060;10.616;2022-07-29T08:00:21;6.10;;;2.50;;
57627;SDS011;43451;49.060;10.616;2022-07-29T08:02:47;4.18;;;2.60;;
57627;SDS011;43451;49.060;10.616;2022-07-29T08:05:13;4.97;;;3.03;;
57627;SDS011;43451;49.060;10.616;2022-07-29T08:07:42;17.30;;;3.45;;
57627;SDS011;43451;49.060;10.616;2022-07-29T08:10:09;5.90;;;3.40;;
57627;SDS011;43451;49.060;10.616;2022-07-29T08:12:34;5.75;;;3.40;;
57627;SDS011;43451;49.060;10.616;2022-07-29T08:15:00;3.45;;;2.92;;
57627;SDS011;43451;49.060;10.616;2022-07-29T08:17:25;5.25;;;2.95;;
57627;SDS011;43451;49.060;10.616;2022-07-29T08:19:51;4.47;;;3.00;;
57627;SDS011;43451;49.060;10.616;2022-07-29T08:22:17;6.35;;;3.03;;
57627;SDS011;43451;49.060;10.616;2022-07-29T08:24:42;5.68;;;3.10;;
57627;SDS011;43451;49.060;10.616;2022-07-29T08:27:08;3.33;;;2.90;;
57627;SDS011;43451;49.060;10.616;2022-07-29T08:29:35;2.90;;;2.60;;
57627;SDS011;43451;49.060;10.616;2022-07-29T08:32:01;4.90;;;2.80;;
57627;SDS011;43451;49.060;10.616;2022-07-29T08:34:27;4.50;;;2.90;;
57627;SDS011;43451;49.060;10.616;2022-07-29T08:36:53;4.35;;;2.97;;
57627;SDS011;43451;49.060;10.616;2022-07-29T08:39:20;9.32;;;2.95;;
57627;SDS011;43451;49.060;10.616;2022-07-29T08:41:46;3.70;;;2.65;;
57627;SDS011;43451;49.060;10.616;2022-07-29T08:44:12;3.90;;;2.75;;
57627;SDS011;43451;49.060;10.616;2022-07-29T08:46:40;6.53;;;2.83;;
57627;SDS011;43451;49.060;10.616;2022-07-29T08:49:06;7.82;;;3.00;;
57627;SDS011;43451;49.060;10.616;2022-07-29T08:51:32;4.40;;;2.80;;
57627;SDS011;43451;49.060;10.616;2022-07-29T08:53:58;2.87;;;2.57;;
57627;SDS011;43451;49.060;10.616;2022-07-29T08:56:25;2.90;;;2.60;;
57627;SDS011;43451;49.060;10.616;2022-07-29T08:58:50;4.47;;;2.72;;
57627;SDS011;43451;49.060;10.616;2022-07-29T09:01:17;4.60;;;2.90;;
57627;SDS011;43451;49.060;10.616;2022-07-29T09:03:47;3.63;;;2.50;;
57627;SDS011;43451;49.060;10.616;2022-07-29T09:06:14;2.90;;;2.42;;
57627;SDS011;43451;49.060;10.616;2022-07-29T09:08:41;3.50;;;2.50;;
57627;SDS011;43451;49.060;10.616;2022-07-29T09:11:07;4.40;;;2.55;;
57627;SDS011;43451;49.060;10.616;2022-07-29T09:13:33;2.97;;;2.60;;
57627;SDS011;43451;49.060;10.616;2022-07-29T09:15:59;4.38;;;2.70;;
57627;SDS011;43451;49.060;10.616;2022-07-29T09:18:40;5.10;;;2.45;;
57627;SDS011;43451;49.060;10.616;2022-07-29T09:21:08;4.95;;;2.58;;
57627;SDS011;43451;49.060;10.616;2022-07-29T09:24:01;2.40;;;2.20;;
57627;SDS011;43451;49.060;10.616;2022-07-29T09:26:41;4.38;;;2.70;;
57627;SDS011;43451;49.060;10.616;2022-07-29T09:29:09;3.92;;;2.53;;
57627;SDS011;43451;49.060;10.616;2022-07-29T09:31:40;5.68;;;2.67;;
57627;SDS011;43451;49.060;10.616;2022-07-29T09:34:07;4.75;;;2.45;;
57627;SDS011;43451;49.060;10.616;2022-07-29T09:36:47;3.42;;;2.00;;
57627;SDS011;43451;49.060;10.616;2022-07-29T09:39:14;4.93;;;2.20;;
57627;SDS011;43451;49.060;10.616;2022-07-29T09:41:44;109.40;;;6.88;;
57627;SDS011;43451;49.060;10.616;2022-07-29T09:44:13;4.80;;;2.20;;
57627;SDS011;43451;49.060;10.616;2022-07-29T09:46:40;4.95;;;2.22;;
57627;SDS011;43451;49.060;10.616;2022-07-29T09:49:10;7.28;;;2.40;;
57627;SDS011;43451;49.060;10.616;2022-07-29T09:51:37;12.02;;;2.50;;
57627;SDS011;43451;49.060;10.616;2022-07-29T09:54:20;4.97;;;2.33;;
57627;SDS011;43451;49.060;10.616;2022-07-29T09:56:48;3.10;;;2.20;;
57627;SDS011;43451;49.060;10.616;2022-07-29T09:59:13;2.67;;;2.00;;
57627;SDS011;43451;49.060;10.616;2022-07-29T10:01:39;4.13;;;2.10;;
57627;SDS011;43451;49.060;10.616;2022-07-29T10:04:05;4.90;;;2.15;;
57627;SDS011;43451;49.060;10.616;2022-07-29T10:06:31;3.03;;;2.13;;
57627;SDS011;43451;49.060;10.616;2022-07-29T10:09:09;5.25;;;2.38;;
57627;SDS011;43451;49.060;10.616;2022-07-29T10:11:36;9.60;;;2.70;;
57627;SDS011;43451;49.060;10.616;2022-07-29T10:14:02;2.97;;;2.20;;
57627;SDS011;43451;49.060;10.616;2022-07-29T10:16:28;5.03;;;2.50;;
57627;SDS011;43451;49.060;10.616;2022-07-29T10:18:57;5.30;;;2.60;;
57627;SDS011;43451;49.060;10.616;2022-07-29T10:21:24;7.03;;;2.25;;
57627;SDS011;43451;49.060;10.616;2022-07-29T10:23:50;5.07;;;2.45;;
57627;SDS011;43451;49.060;10.616;2022-07-29T10:26:17;31.50;;;3.40;;
57627;SDS011;43451;49.060;10.616;2022-07-29T10:28:43;2.42;;;2.22;;
57627;SDS011;43451;49.060;10.616;2022-07-29T10:31:10;2.92;;;1.98;;
57627;SDS011;43451;49.060;10.616;2022-07-29T10:34:04;11.82;;;2.50;;
57627;SDS011;43451;49.060;10.616;2022-07-29T10:42:54;6.00;;;2.50;;
57627;SDS011;43451;49.060;10.616;2022-07-29T10:45:24;5.70;;;2.38;;
57627;SDS011;43451;49.060;10.616;2022-07-29T10:47:59;6.85;;;2.15;;
57627;SDS011;43451;49.060;10.616;2022-07-29T10:50:28;6.32;;;2.13;;
57627;SDS011;43451;49.060;10.616;2022-07-29T10:53:24;22.02;;;3.28;;
57627;SDS011;43451;49.060;10.616;2022-07-29T10:55:56;22.92;;;2.70;;
57627;SDS011;43451;49.060;10.616;2022-07-29T10:58:22;8.60;;;3.53;;
57627;SDS011;43451;49.060;10.616;2022-07-29T11:00:51;6.53;;;2.10;;
57627;SDS011;43451;49.060;10.616;2022-07-29T11:06:05;2.92;;;1.67;;
57627;SDS011;43451;49.060;10.616;2022-07-29T11:08:31;5.15;;;1.85;;
57627;SDS011;43451;49.060;10.616;2022-07-29T11:16:09;2.95;;;2.00;;
57627;SDS011;43451;49.060;10.616;2022-07-29T11:18:34;4.15;;;1.90;;
57627;SDS011;43451;49.060;10.616;2022-07-29T11:20:59;2.35;;;1.70;;
57627;SDS011;43451;49.060;10.616;2022-07-29T11:23:32;4.18;;;2.10;;
57627;SDS011;43451;49.060;10.616;2022-07-29T11:28:36;4.03;;;2.00;;
57627;SDS011;43451;49.060;10.616;2022-07-29T11:31:04;7.70;;;1.70;;
57627;SDS011;43451;49.060;10.616;2022-07-29T11:33:33;2.03;;;1.80;;
57627;SDS011;43451;49.060;10.616;2022-07-29T11:38:34;2.00;;;1.70;;
57627;SDS011;43451;49.060;10.616;2022-07-29T11:43:58;8.15;;;1.80;;
57627;SDS011;43451;49.060;10.616;2022-07-29T11:51:37;6.77;;;1.83;;
57627;SDS011;43451;49.060;10.616;2022-07-29T11:54:03;1.80;;;1.70;;
57627;SDS011;43451;49.060;10.616;2022-07-29T11:56:33;4.60;;;1.50;;
57627;SDS011;43451;49.060;10.616;2022-07-29T11:59:05;1.55;;;1.40;;
57627;SDS011;43451;49.060;10.616;2022-07-29T12:01:31;7.07;;;1.70;;
57627;SDS011;43451;49.060;10.616;2022-07-29T12:04:06;2.70;;;1.70;;
57627;SDS011;43451;49.060;10.616;2022-07-29T12:06:35;5.43;;;1.40;;
57627;SDS011;43451;49.060;10.616;2022-07-29T12:09:06;4.93;;;1.50;;
57627;SDS011;43451;49.060;10.616;2022-07-29T12:11:32;3.88;;;1.55;;
57627;SDS011;43451;49.060;10.616;2022-07-29T12:13:58;3.20;;;1.70;;
57627;SDS011;43451;49.060;10.616;2022-07-29T12:16:33;2.90;;;1.70;;
57627;SDS011;43451;49.060;10.616;2022-07-29T12:19:01;5.57;;;1.92;;
57627;SDS011;43451;49.060;10.616;2022-07-29T12:23:54;5.80;;;1.98;;
57627;SDS011;43451;49.060;10.616;2022-07-29T12:26:20;13.35;;;2.13;;
57627;SDS011;43451;49.060;10.616;2022-07-29T12:28:46;3.22;;;2.20;;
57627;SDS011;43451;49.060;10.616;2022-07-29T12:31:15;24.70;;;3.40;;
57627;SDS011;43451;49.060;10.616;2022-07-29T12:33:40;8.25;;;3.78;;
57627;SDS011;43451;49.060;10.616;2022-07-29T12:36:06;14.85;;;4.32;;
57627;SDS011;43451;49.060;10.616;2022-07-29T12:38:35;21.88;;;5.30;;
57627;SDS011;43451;49.060;10.616;2022-07-29T12:41:01;9.05;;;4.55;;
57627;SDS011;43451;49.060;10.616;2022-07-29T12:43:26;4.60;;;4.18;;
57627;SDS011;43451;49.060;10.616;2022-07-29T12:45:55;5.93;;;4.18;;
57627;SDS011;43451;49.060;10.616;2022-07-29T12:48:38;5.88;;;4.32;;
57627;SDS011;43451;49.060;10.616;2022-07-29T12:51:05;6.78;;;4.40;;
57627;SDS011;43451;49.060;10.616;2022-07-29T12:53:32;7.45;;;4.50;;
57627;SDS011;43451;49.060;10.616;2022-07-29T12:55:58;5.90;;;4.32;;
57627;SDS011;43451;49.060;10.616;2022-07-29T12:58:31;5.20;;;4.10;;
57627;SDS011;43451;49.060;10.616;2022-07-29T13:03:52;4.88;;;3.90;;
57627;SDS011;43451;49.060;10.616;2022-07-29T13:09:06;3.90;;;3.42;;
57627;SDS011;43451;49.060;10.616;2022-07-29T13:13:58;5.22;;;3.30;;
57627;SDS011;43451;49.060;10.616;2022-07-29T13:16:24;5.43;;;3.40;;
57627;SDS011;43451;49.060;10.616;2022-07-29T13:19:02;5.65;;;3.30;;
57627;SDS011;43451;49.060;10.616;2022-07-29T13:21:37;3.63;;;3.30;;
57627;SDS011;43451;49.060;10.616;2022-07-29T13:24:07;3.80;;;3.05;;
57627;SDS011;43451;49.060;10.616;2022-07-29T13:26:33;5.28;;;3.70;;
57627;SDS011;43451;49.060;10.616;2022-07-29T13:28:58;5.10;;;2.97;;
57627;SDS011;43451;49.060;10.616;2022-07-29T13:31:24;3.25;;;2.55;;
57627;SDS011;43451;49.060;10.616;2022-07-29T13:33:49;6.93;;;2.70;;
57627;SDS011;43451;49.060;10.616;2022-07-29T13:36:15;9.38;;;2.97;;
57627;SDS011;43451;49.060;10.616;2022-07-29T13:38:40;11.10;;;2.80;;
57627;SDS011;43451;49.060;10.616;2022-07-29T13:41:06;4.45;;;2.85;;
57627;SDS011;43451;49.060;10.616;2022-07-29T13:43:31;6.28;;;3.08;;
57627;SDS011;43451;49.060;10.616;2022-07-29T13:45:56;6.35;;;2.60;;
57627;SDS011;43451;49.060;10.616;2022-07-29T13:48:22;6.00;;;2.70;;
57627;SDS011;43451;49.060;10.616;2022-07-29T13:50:47;3.90;;;2.55;;
57627;SDS011;43451;49.060;10.616;2022-07-29T13:53:13;5.70;;;2.47;;
57627;SDS011;43451;49.060;10.616;2022-07-29T13:55:38;4.93;;;2.40;;
57627;SDS011;43451;49.060;10.616;2022-07-29T13:58:04;6.22;;;2.60;;
57627;SDS011;43451;49.060;10.616;2022-07-29T14:00:29;5.57;;;2.35;;
57627;SDS011;43451;49.060;10.616;2022-07-29T14:02:55;4.90;;;2.30;;
57627;SDS011;43451;49.060;10.616;2022-07-29T14:05:20;6.18;;;2.08;;
57627;SDS011;43451;49.060;10.616;2022-07-29T14:07:45;5.88;;;2.53;;
57627;SDS011;43451;49.060;10.616;2022-07-29T14:10:11;4.70;;;2.38;;
57627;SDS011;43451;49.060;10.616;2022-07-29T14:12:36;5.78;;;2.50;;
57627;SDS011;43451;49.060;10.616;2022-07-29T14:15:02;6.43;;;2.72;;
57627;SDS011;43451;49.060;10.616;2022-07-29T14:17:28;5.90;;;2.53;;
57627;SDS011;43451;49.060;10.616;2022-07-29T14:19:54;4.28;;;2.55;;
57627;SDS011;43451;49.060;10.616;2022-07-29T14:22:19;3.10;;;2.70;;
57627;SDS011;43451;49.060;10.616;2022-07-29T14:24:45;3.85;;;2.55;;
57627;SDS011;43451;49.060;10.616;2022-07-29T14:27:10;3.67;;;2.50;;
57627;SDS011;43451;49.060;10.616;2022-07-29T14:29:36;4.50;;;2.50;;
57627;SDS011;43451;49.060;10.616;2022-07-29T14:32:02;5.38;;;2.50;;
57627;SDS011;43451;49.060;10.616;2022-07-29T14:34:28;9.05;;;3.20;;
57627;SDS011;43451;49.060;10.616;2022-07-29T14:36:54;5.45;;;2.92;;
57627;SDS011;43451;49.060;10.616;2022-07-29T14:39:21;6.40;;;2.92;;
57627;SDS011;43451;49.060;10.616;2022-07-29T14:41:48;5.75;;;2.80;;
57627;SDS011;43451;49.060;10.616;2022-07-29T14:44:13;5.70;;;2.58;;
57627;SDS011;43451;49.060;10.616;2022-07-29T14:46:39;4.28;;;2.83;;
57627;SDS011;43451;49.060;10.616;2022-07-29T14:49:04;5.53;;;2.80;;
57627;SDS011;43451;49.060;10.616;2022-07-29T14:51:30;6.05;;;3.00;;
57627;SDS011;43451;49.060;10.616;2022-07-29T14:53:56;5.93;;;3.00;;
57627;SDS011;43451;49.060;10.616;2022-07-29T14:56:21;4.40;;;3.38;;
57627;SDS011;43451;49.060;10.616;2022-07-29T14:58:47;5.50;;;3.20;;
57627;SDS011;43451;49.060;10.616;2022-07-29T15:01:13;7.10;;;3.13;;
57627;SDS011;43451;49.060;10.616;2022-07-29T15:03:39;5.72;;;3.60;;
57627;SDS011;43451;49.060;10.616;2022-07-29T15:06:04;9.07;;;3.40;;
57627;SDS011;43451;49.060;10.616;2022-07-29T15:08:30;5.40;;;3.22;;
57627;SDS011;43451;49.060;10.616;2022-07-29T15:10:56;4.63;;;3.17;;
57627;SDS011;43451;49.060;10.616;2022-07-29T15:13:24;15.65;;;3.85;;
57627;SDS011;43451;49.060;10.616;2022-07-29T15:15:50;8.13;;;3.30;;
57627;SDS011;43451;49.060;10.616;2022-07-29T15:18:15;13.85;;;3.90;;
57627;SDS011;43451;49.060;10.616;2022-07-29T15:20:40;15.35;;;3.65;;
57627;SDS011;43451;49.060;10.616;2022-07-29T15:23:06;6.30;;;3.13;;
57627;SDS011;43451;49.060;10.616;2022-07-29T15:25:34;3.38;;;2.97;;